Decoded Metar for LFOJ (ORLEANS in FRANCE) (IATA:ORE) | Meteo·Mobile Aviation Weather
aviador You're here:

LFOJ Decoded Metar

ORLEANS in FRANCE
Report Time2019-02-16 07:00:00
UTC Time2019-02-16 07:11:48
Flight Rules vfr VFR
Wind160° at 05 kt
W.Decomp.*RWY 25: 0.1 kt HW 5 kt LCW
W.Rank160° ranks 25
Current wind is below 160° avg. (6.0)
Visibility9000 m
Phenomena:N/A
Clouds:N/A
Expected CloudBase > 800 ft AGL from Temp-Dew spread
CeilingNone
Temp01°C (ISA -13)
Dew Point-1°C (87% RH)
AAT-2.9°C
QNH1026 hPa
Density Alt-1,558 ft
Elevation410 ft
Report Wrong Elevation
Raw Report
METAR LFOJ 160700Z AUTO 16005KT 9000 NSC 01/M01 Q1026 TEMPO 1200
BCFG=

Extra information for LFOJ:More info

Metar Taf Metar & Taf Last 4 Metars F.Rules Stats Wind Profile Meteogram Temp Stats Airport Information Weather charts Add Link Nearby VenuesMetar ALERT Operation Metar Decoded Social comments